createdAt,value
2023-03-03T00:00:02.530Z,-1.25
2023-03-03T00:02:48.548Z,-1.26
2023-03-03T00:05:34.348Z,-1.36
2023-03-03T00:08:20.225Z,-1.31
2023-03-03T00:11:06.245Z,-1.47
2023-03-03T00:14:10.917Z,-1.52
2023-03-03T00:16:56.851Z,-1.70
2023-03-03T00:19:42.735Z,-1.78
2023-03-03T00:22:28.540Z,-1.83
2023-03-03T00:25:14.442Z,-1.90
2023-03-03T00:28:00.658Z,-1.87
2023-03-03T00:30:46.424Z,-1.99
2023-03-03T00:33:32.351Z,-2.05
2023-03-03T00:36:18.232Z,-2.14
2023-03-03T00:39:04.057Z,-2.24
2023-03-03T00:41:50.021Z,-2.27
2023-03-03T00:44:35.693Z,-2.37
2023-03-03T00:47:21.603Z,-2.38
2023-03-03T00:50:07.531Z,-2.36
2023-03-03T00:52:53.408Z,-2.33
2023-03-03T00:55:39.248Z,-2.38
2023-03-03T00:58:25.218Z,-2.36
2023-03-03T01:01:11.064Z,-2.31
2023-03-03T01:03:56.865Z,-2.35
2023-03-03T01:06:42.795Z,-2.30
2023-03-03T01:09:28.782Z,-2.29
2023-03-03T01:12:14.783Z,-2.25
2023-03-03T01:15:00.688Z,-2.14
2023-03-03T01:17:46.635Z,-2.06
2023-03-03T01:20:32.467Z,-2.18
2023-03-03T01:23:18.536Z,-2.10
2023-03-03T01:26:04.337Z,-2.10
2023-03-03T01:28:50.259Z,-2.14
2023-03-03T01:31:36.398Z,-2.29
2023-03-03T01:34:22.270Z,-2.33
2023-03-03T01:37:08.232Z,-2.34
2023-03-03T01:39:54.157Z,-2.33
2023-03-03T01:42:39.857Z,-2.23
2023-03-03T01:45:25.824Z,-2.20
2023-03-03T01:48:11.851Z,-2.09
2023-03-03T01:50:57.689Z,-2.00
2023-03-03T01:53:43.558Z,-1.83
2023-03-03T01:56:29.389Z,-1.92
2023-03-03T01:59:15.287Z,-1.91
2023-03-03T02:02:01.278Z,-1.92
2023-03-03T02:04:47.250Z,-1.98
2023-03-03T02:07:33.162Z,-1.92
2023-03-03T02:10:19.147Z,-1.83
2023-03-03T02:13:05.004Z,-1.86
2023-03-03T02:15:50.979Z,-1.87
2023-03-03T02:18:36.899Z,-2.07
2023-03-03T02:21:22.936Z,-2.14
2023-03-03T02:24:08.975Z,-2.20
2023-03-03T02:26:57.374Z,-2.26
2023-03-03T02:29:43.274Z,-2.19
2023-03-03T02:32:29.181Z,-2.09
2023-03-03T02:35:15.041Z,-2.01
2023-03-03T02:38:00.866Z,-1.94
2023-03-03T02:40:46.751Z,-1.76
2023-03-03T02:43:34.591Z,-1.61
2023-03-03T02:46:20.546Z,-1.53
2023-03-03T02:49:06.725Z,-1.28
2023-03-03T02:51:52.895Z,-1.12
2023-03-03T02:54:38.933Z,-0.99
2023-03-03T02:57:24.719Z,-0.98
2023-03-03T03:00:10.706Z,-0.60
2023-03-03T03:02:56.630Z,-0.23
2023-03-03T03:05:42.528Z,-0.40
2023-03-03T03:08:28.509Z,0.49
2023-03-03T03:11:14.275Z,1.12
2023-03-03T03:14:00.122Z,1.06
2023-03-03T03:16:46.114Z,0.26
2023-03-03T03:19:32.020Z,0.15
2023-03-03T03:22:17.885Z,-0.93
2023-03-03T03:25:03.757Z,-1.33
2023-03-03T03:27:49.651Z,-1.50
2023-03-03T03:30:35.654Z,-1.29
2023-03-03T03:33:21.455Z,-1.38
2023-03-03T03:36:07.497Z,-1.39
2023-03-03T03:38:53.490Z,-1.41
2023-03-03T03:41:39.399Z,-1.38
2023-03-03T03:44:25.353Z,-1.41
2023-03-03T03:47:11.141Z,-1.54
2023-03-03T03:49:56.906Z,-1.67
2023-03-03T03:52:42.824Z,-1.65
2023-03-03T03:55:30.798Z,-1.61
2023-03-03T03:58:16.555Z,-1.58
2023-03-03T04:01:02.360Z,-1.64
2023-03-03T04:03:48.291Z,-1.60
2023-03-03T04:06:34.118Z,-1.56
2023-03-03T04:09:19.987Z,-1.72
2023-03-03T04:12:05.879Z,-1.78
2023-03-03T04:14:51.875Z,-1.70
2023-03-03T04:17:37.763Z,-1.82
2023-03-03T04:20:23.650Z,-1.93
2023-03-03T04:23:09.634Z,-2.08
2023-03-03T04:25:55.365Z,-2.01
2023-03-03T04:28:41.285Z,-2.02
2023-03-03T04:31:27.141Z,-2.11
2023-03-03T04:34:13.108Z,-2.11
2023-03-03T04:36:58.946Z,-2.22
2023-03-03T04:39:44.836Z,-2.33
2023-03-03T04:42:30.710Z,-2.40
2023-03-03T04:45:16.601Z,-2.34
2023-03-03T04:48:02.428Z,-2.23
2023-03-03T04:50:48.320Z,-2.13
2023-03-03T04:53:34.084Z,-2.16
2023-03-03T04:56:22.027Z,-2.26
2023-03-03T04:59:07.997Z,-2.23
2023-03-03T05:01:53.952Z,-2.24
2023-03-03T05:04:40.081Z,-2.43
2023-03-03T05:07:26.315Z,-2.51
2023-03-03T05:10:12.206Z,-2.52
2023-03-03T05:12:57.981Z,-2.50
2023-03-03T05:15:43.958Z,-2.36
2023-03-03T05:18:29.778Z,-2.16
2023-03-03T05:21:15.638Z,-2.24
2023-03-03T05:24:01.541Z,-1.99
2023-03-03T05:26:47.600Z,-1.20
2023-03-03T05:29:33.519Z,-1.09
2023-03-03T05:32:19.425Z,-0.16
2023-03-03T05:35:05.406Z,0.32
2023-03-03T05:37:51.193Z,0.27
2023-03-03T05:40:37.119Z,0.41
2023-03-03T05:43:23.034Z,0.55
2023-03-03T05:46:09.010Z,1.08
2023-03-03T05:48:55.325Z,1.29
2023-03-03T05:51:41.381Z,1.58
2023-03-03T05:54:27.270Z,1.46
2023-03-03T05:57:13.239Z,1.79
2023-03-03T05:59:59.065Z,2.05
2023-03-03T06:02:45.124Z,2.42
2023-03-03T06:05:31.150Z,2.52
2023-03-03T06:08:16.983Z,2.23
2023-03-03T06:11:02.930Z,1.57
2023-03-03T06:13:48.770Z,0.13
2023-03-03T06:16:35.714Z,-0.87
2023-03-03T06:19:22.233Z,-1.09
2023-03-03T06:22:08.247Z,-1.54
2023-03-03T06:24:54.071Z,-1.45
2023-03-03T06:27:40.108Z,-1.63
2023-03-03T06:30:26.047Z,-1.68
2023-03-03T06:33:12.102Z,-1.52
2023-03-03T06:35:58.124Z,-1.33
2023-03-03T06:38:43.989Z,-1.32
2023-03-03T06:41:30.151Z,-1.00
2023-03-03T06:44:16.200Z,-0.83
2023-03-03T06:47:02.022Z,-1.25
2023-03-03T06:49:48.078Z,-1.10
2023-03-03T06:52:34.025Z,-0.91
2023-03-03T06:55:19.880Z,-0.84
2023-03-03T06:58:05.874Z,-1.05
2023-03-03T07:00:51.720Z,-1.38
2023-03-03T07:03:37.782Z,-1.86
2023-03-03T07:06:23.719Z,-1.82
2023-03-03T07:09:09.648Z,-1.92
2023-03-03T07:11:55.510Z,-1.74
2023-03-03T07:14:41.311Z,-1.88
2023-03-03T07:17:27.311Z,-2.03
2023-03-03T07:20:13.282Z,-2.00
2023-03-03T07:22:59.083Z,-1.86
2023-03-03T07:25:44.954Z,-1.85
2023-03-03T07:28:30.885Z,-1.90
2023-03-03T07:31:16.856Z,-1.83
2023-03-03T07:34:02.825Z,-1.73
2023-03-03T07:36:48.717Z,-1.33
2023-03-03T07:39:34.645Z,-1.32
2023-03-03T07:42:20.537Z,-1.02
2023-03-03T07:45:06.298Z,-0.71
2023-03-03T07:47:52.198Z,-0.71
2023-03-03T07:50:38.604Z,-1.27
2023-03-03T07:53:24.448Z,-1.07
2023-03-03T07:56:10.425Z,-0.67
2023-03-03T07:58:56.656Z,-0.89
2023-03-03T08:01:42.722Z,-1.24
2023-03-03T08:04:28.838Z,-1.10
2023-03-03T08:07:14.695Z,-0.67
2023-03-03T08:10:00.519Z,-0.51
2023-03-03T08:12:46.492Z,-0.78
2023-03-03T08:15:32.426Z,-0.71
2023-03-03T08:18:22.288Z,-0.60
2023-03-03T08:21:08.300Z,-0.66
2023-03-03T08:23:54.154Z,-0.92
2023-03-03T08:26:40.272Z,-0.95
2023-03-03T08:29:26.089Z,-1.34
2023-03-03T08:32:12.145Z,-1.27
2023-03-03T08:34:58.429Z,-0.61
2023-03-03T08:37:44.473Z,-0.58
2023-03-03T08:40:30.437Z,-1.23
2023-03-03T08:43:16.316Z,-0.65
2023-03-03T08:46:02.217Z,-1.25
2023-03-03T08:48:48.188Z,-1.02
2023-03-03T08:51:34.035Z,-1.14
2023-03-03T08:54:19.866Z,-1.15
2023-03-03T08:57:05.802Z,-0.99
2023-03-03T08:59:51.567Z,-1.03
2023-03-03T09:02:37.551Z,-1.63
2023-03-03T09:05:23.583Z,-1.67
2023-03-03T09:08:09.533Z,-1.66
2023-03-03T09:10:55.553Z,-1.05
2023-03-03T09:13:41.388Z,-1.30
2023-03-03T09:16:27.372Z,-1.45
2023-03-03T09:19:13.740Z,-1.56
2023-03-03T09:21:59.609Z,-1.52
2023-03-03T09:24:45.519Z,-1.44
2023-03-03T09:27:31.435Z,-1.29
2023-03-03T09:30:17.305Z,-1.23
2023-03-03T09:33:03.244Z,-1.03
2023-03-03T09:35:49.066Z,-1.29
2023-03-03T09:38:35.053Z,-1.32
2023-03-03T09:41:20.947Z,-1.28
2023-03-03T09:44:06.802Z,-1.53
2023-03-03T09:46:52.793Z,-1.70
2023-03-03T09:49:38.748Z,-1.67
2023-03-03T09:52:24.745Z,-1.37
2023-03-03T09:55:10.572Z,-1.51
2023-03-03T09:58:09.931Z,-1.33
2023-03-03T10:00:57.332Z,-1.30
2023-03-03T10:03:43.223Z,-1.30
2023-03-03T10:06:29.280Z,-1.41
2023-03-03T10:09:15.204Z,-1.12
2023-03-03T10:12:01.034Z,-1.39
2023-03-03T10:14:47.402Z,-0.91
2023-03-03T10:17:33.656Z,-1.12
2023-03-03T10:20:19.497Z,-0.84
2023-03-03T10:23:05.327Z,-0.71
2023-03-03T10:25:51.274Z,-0.77
2023-03-03T10:28:37.131Z,-0.80
2023-03-03T10:31:28.459Z,-0.48
2023-03-03T10:34:14.640Z,-0.62
2023-03-03T10:37:00.576Z,-0.88
2023-03-03T10:39:46.494Z,-0.83
2023-03-03T10:42:32.446Z,-0.97
2023-03-03T10:45:18.342Z,-1.03
2023-03-03T10:48:04.303Z,-0.13
2023-03-03T10:50:50.082Z,-0.54
2023-03-03T10:53:35.972Z,-0.62
2023-03-03T10:56:21.909Z,-0.51
2023-03-03T10:59:07.797Z,-0.38
2023-03-03T11:01:53.745Z,-0.35
2023-03-03T11:04:39.892Z,-0.31
2023-03-03T11:07:25.765Z,-0.22
2023-03-03T11:10:11.637Z,-0.58
2023-03-03T11:12:57.674Z,-0.06
2023-03-03T11:15:43.685Z,-0.24
2023-03-03T11:18:29.543Z,-0.19
2023-03-03T11:21:15.373Z,0.26
2023-03-03T11:24:01.314Z,0.07
2023-03-03T11:26:47.358Z,0.28
2023-03-03T11:29:33.198Z,0.34
2023-03-03T11:32:19.227Z,-0.04
2023-03-03T11:35:05.138Z,0.09
2023-03-03T11:37:51.041Z,0.43
2023-03-03T11:40:36.984Z,0.65
2023-03-03T11:43:35.685Z,0.85
2023-03-03T11:46:24.786Z,0.62
2023-03-03T11:49:10.551Z,0.26
2023-03-03T11:51:56.328Z,0.40
2023-03-03T11:54:42.153Z,0.08
2023-03-03T11:57:28.006Z,0.24
2023-03-03T12:00:14.262Z,0.39
2023-03-03T12:03:00.442Z,-0.20
2023-03-03T12:05:46.284Z,-0.05
2023-03-03T12:08:32.197Z,0.38
2023-03-03T12:11:17.950Z,0.57
2023-03-03T12:14:03.844Z,1.16
2023-03-03T12:16:49.852Z,0.66
2023-03-03T12:19:35.802Z,0.69
2023-03-03T12:22:21.641Z,0.75
2023-03-03T12:25:07.543Z,0.30
2023-03-03T12:27:53.322Z,0.95
2023-03-03T12:30:39.174Z,0.22
2023-03-03T12:33:24.986Z,-0.31
2023-03-03T12:36:10.819Z,0.10
2023-03-03T12:38:56.760Z,0.38
2023-03-03T12:41:42.650Z,0.57
2023-03-03T12:44:28.560Z,0.77
2023-03-03T12:47:16.597Z,0.51
2023-03-03T12:50:07.553Z,0.55
2023-03-03T12:52:54.320Z,0.63
2023-03-03T12:55:40.358Z,0.65
2023-03-03T12:58:26.326Z,0.51
2023-03-03T13:01:12.371Z,0.96
2023-03-03T13:03:58.442Z,1.40
2023-03-03T13:06:44.282Z,0.93
2023-03-03T13:09:30.405Z,1.03
2023-03-03T13:12:16.372Z,0.70
2023-03-03T13:15:02.150Z,0.61
2023-03-03T13:17:49.456Z,0.78
2023-03-03T13:20:35.492Z,0.79
2023-03-03T13:23:21.201Z,1.55
2023-03-03T13:26:07.143Z,1.60
2023-03-03T13:28:53.044Z,1.13
2023-03-03T13:31:38.929Z,1.19
2023-03-03T13:34:24.879Z,0.43
2023-03-03T13:37:10.617Z,1.45
2023-03-03T13:39:56.681Z,0.52
2023-03-03T13:42:42.551Z,0.65
2023-03-03T13:45:28.350Z,0.36
2023-03-03T13:48:14.604Z,0.90
2023-03-03T13:51:00.754Z,1.45
2023-03-03T13:53:46.664Z,1.59
2023-03-03T13:56:32.535Z,1.62
2023-03-03T13:59:18.371Z,1.34
2023-03-03T14:02:04.351Z,1.46
2023-03-03T14:04:50.312Z,2.12
2023-03-03T14:07:36.109Z,2.24
2023-03-03T14:10:21.969Z,2.07
2023-03-03T14:13:07.766Z,2.08
2023-03-03T14:15:53.657Z,2.40
2023-03-03T14:18:39.582Z,2.42
2023-03-03T14:21:25.540Z,2.76
2023-03-03T14:24:11.456Z,3.24
2023-03-03T14:26:57.238Z,3.07
2023-03-03T14:29:43.138Z,3.27
2023-03-03T14:32:44.509Z,3.39
2023-03-03T14:35:31.191Z,3.35
2023-03-03T14:38:17.149Z,2.66
2023-03-03T14:41:03.157Z,2.79
2023-03-03T14:43:48.986Z,3.22
2023-03-03T14:46:34.724Z,2.94
2023-03-03T14:49:20.689Z,3.39
2023-03-03T14:52:06.603Z,4.19
2023-03-03T14:54:52.444Z,4.33
2023-03-03T14:57:38.162Z,5.08
2023-03-03T15:00:24.060Z,4.11
2023-03-03T15:03:09.909Z,3.52
2023-03-03T15:05:55.796Z,3.27
2023-03-03T15:08:41.706Z,2.86
2023-03-03T15:11:27.536Z,3.25
2023-03-03T15:14:13.532Z,3.36
2023-03-03T15:16:59.611Z,3.30
2023-03-03T15:19:45.538Z,3.24
2023-03-03T15:22:31.619Z,3.63
2023-03-03T15:25:20.620Z,3.54
2023-03-03T15:28:06.668Z,3.50
2023-03-03T15:30:52.501Z,4.00
2023-03-03T15:33:38.294Z,3.94
2023-03-03T15:36:24.383Z,3.72
2023-03-03T15:39:10.325Z,3.97
2023-03-03T15:41:56.224Z,3.62
2023-03-03T15:44:42.230Z,3.42
2023-03-03T15:47:28.138Z,3.55
2023-03-03T15:50:15.615Z,3.54
2023-03-03T15:53:01.598Z,3.67
2023-03-03T15:55:47.612Z,3.70
2023-03-03T15:58:33.576Z,4.16
2023-03-03T16:01:19.693Z,3.16
2023-03-03T16:04:05.471Z,4.25
2023-03-03T16:06:51.411Z,3.38
2023-03-03T16:09:37.282Z,3.46
2023-03-03T16:12:23.165Z,3.82
2023-03-03T16:15:09.135Z,3.90
2023-03-03T16:17:55.106Z,3.90
2023-03-03T16:20:40.929Z,4.57
2023-03-03T16:23:26.784Z,4.90
2023-03-03T16:26:12.670Z,5.60
2023-03-03T16:28:58.654Z,4.88
2023-03-03T16:31:44.682Z,5.49
2023-03-03T16:34:30.585Z,5.47
2023-03-03T16:37:16.508Z,5.41
2023-03-03T16:40:02.467Z,5.64
2023-03-03T16:42:48.361Z,5.47
2023-03-03T16:45:34.467Z,5.04
2023-03-03T16:48:20.346Z,5.16
2023-03-03T16:51:06.374Z,5.50
2023-03-03T16:53:52.231Z,5.30
2023-03-03T16:56:38.063Z,5.94
2023-03-03T16:59:24.060Z,6.05
2023-03-03T17:02:09.974Z,6.41
2023-03-03T17:04:55.966Z,6.99
2023-03-03T17:07:42.169Z,6.63
2023-03-03T17:10:28.033Z,7.13
2023-03-03T17:13:13.942Z,7.65
2023-03-03T17:15:59.833Z,7.60
2023-03-03T17:18:45.830Z,7.54
2023-03-03T17:21:31.838Z,7.89
2023-03-03T17:24:17.894Z,7.54
2023-03-03T17:27:03.821Z,7.87
2023-03-03T17:29:49.787Z,8.31
2023-03-03T17:32:35.652Z,8.44
2023-03-03T17:35:21.547Z,8.73
2023-03-03T17:38:07.621Z,8.77
2023-03-03T17:40:53.506Z,8.87
2023-03-03T17:43:46.627Z,8.94
2023-03-03T17:46:32.608Z,9.10
2023-03-03T17:49:18.496Z,7.67
2023-03-03T17:52:04.398Z,7.75
2023-03-03T17:54:52.364Z,6.97
2023-03-03T17:57:38.166Z,7.06
2023-03-03T18:00:24.097Z,5.88
2023-03-03T18:03:10.095Z,5.81
2023-03-03T18:05:55.899Z,5.53
2023-03-03T18:08:41.788Z,5.71
2023-03-03T18:11:27.785Z,5.49
2023-03-03T18:14:13.730Z,5.96
2023-03-03T18:16:59.561Z,5.65
2023-03-03T18:19:45.450Z,5.20
2023-03-03T18:22:31.379Z,5.12
2023-03-03T18:25:17.365Z,4.70
2023-03-03T18:28:03.098Z,4.52
2023-03-03T18:30:49.115Z,4.68
2023-03-03T18:33:37.078Z,3.86
2023-03-03T18:36:23.038Z,4.15
2023-03-03T18:39:08.914Z,3.36
2023-03-03T18:41:54.814Z,3.60
2023-03-03T18:44:40.660Z,3.20
2023-03-03T18:47:26.632Z,3.23
2023-03-03T18:50:12.561Z,3.66
2023-03-03T18:52:58.643Z,4.24
2023-03-03T18:55:44.667Z,4.38
2023-03-03T18:58:30.543Z,4.26
2023-03-03T19:01:16.491Z,3.35
2023-03-03T19:04:02.387Z,3.38
2023-03-03T19:06:48.192Z,3.70
2023-03-03T19:09:33.989Z,3.04
2023-03-03T19:12:19.962Z,3.46
2023-03-03T19:15:05.944Z,3.06
2023-03-03T19:17:51.971Z,2.73
2023-03-03T19:20:37.806Z,2.52
2023-03-03T19:23:23.808Z,2.68
2023-03-03T19:26:09.824Z,2.74
2023-03-03T19:28:55.672Z,2.68
2023-03-03T19:31:41.651Z,2.63
2023-03-03T19:34:27.610Z,2.81
2023-03-03T19:37:13.633Z,2.56
2023-03-03T19:39:59.691Z,2.82
2023-03-03T19:42:45.486Z,2.95
2023-03-03T19:45:31.560Z,3.09
2023-03-03T19:48:17.502Z,2.99
2023-03-03T19:51:03.329Z,2.98
2023-03-03T19:53:49.756Z,2.81
2023-03-03T19:56:35.525Z,3.25
2023-03-03T19:59:21.500Z,3.13
2023-03-03T20:02:07.502Z,3.48
2023-03-03T20:04:53.406Z,3.38
2023-03-03T20:07:39.445Z,2.87
2023-03-03T20:10:25.338Z,3.65
2023-03-03T20:13:11.288Z,3.71
2023-03-03T20:15:57.378Z,3.74
2023-03-03T20:18:43.287Z,3.68
2023-03-03T20:21:29.240Z,3.51
2023-03-03T20:24:15.758Z,2.76
2023-03-03T20:27:01.718Z,3.38
2023-03-03T20:29:47.671Z,3.60
2023-03-03T20:32:33.538Z,3.11
2023-03-03T20:35:19.514Z,3.00
2023-03-03T20:38:05.590Z,3.22
2023-03-03T20:40:51.483Z,3.10
2023-03-03T20:43:37.362Z,3.06
2023-03-03T20:46:23.388Z,3.18
2023-03-03T20:49:09.218Z,2.86
2023-03-03T20:51:55.306Z,2.69
2023-03-03T20:54:41.193Z,3.19
2023-03-03T20:57:27.504Z,2.74
2023-03-03T21:00:13.291Z,3.22
2023-03-03T21:02:59.094Z,3.46
2023-03-03T21:05:44.947Z,3.03
2023-03-03T21:08:30.785Z,3.12
2023-03-03T21:11:16.673Z,2.87
2023-03-03T21:14:02.601Z,3.17
2023-03-03T21:16:48.576Z,3.31
2023-03-03T21:19:34.424Z,3.00
2023-03-03T21:22:20.350Z,2.90
2023-03-03T21:25:06.194Z,2.79
2023-03-03T21:27:52.157Z,2.81
2023-03-03T21:30:38.026Z,2.80
2023-03-03T21:33:23.841Z,2.80
2023-03-03T21:36:09.909Z,2.56
2023-03-03T21:38:55.761Z,3.02
2023-03-03T21:41:41.622Z,2.99
2023-03-03T21:44:27.710Z,3.59
2023-03-03T21:47:13.572Z,3.26
2023-03-03T21:49:59.414Z,2.93
2023-03-03T21:52:45.311Z,2.98
2023-03-03T21:55:32.427Z,3.31
2023-03-03T21:58:18.632Z,3.66
2023-03-03T22:01:04.492Z,4.07
2023-03-03T22:03:50.422Z,4.37
2023-03-03T22:06:36.498Z,4.38
2023-03-03T22:09:22.282Z,4.13
2023-03-03T22:12:08.452Z,5.23
2023-03-03T22:14:54.341Z,3.63
2023-03-03T22:17:40.167Z,3.16
2023-03-03T22:20:26.119Z,2.39
2023-03-03T22:23:12.024Z,2.37
2023-03-03T22:25:58.003Z,2.23
2023-03-03T22:28:44.441Z,2.40
2023-03-03T22:31:30.782Z,2.73
2023-03-03T22:34:16.754Z,2.81
2023-03-03T22:37:02.623Z,3.02
2023-03-03T22:39:48.566Z,3.26
2023-03-03T22:42:34.449Z,3.15
2023-03-03T22:45:20.355Z,3.46
2023-03-03T22:48:06.303Z,3.50
2023-03-03T22:50:52.326Z,3.30
2023-03-03T22:53:38.235Z,3.35
2023-03-03T22:56:24.110Z,3.35
2023-03-03T22:59:09.901Z,3.38
2023-03-03T23:01:55.887Z,3.48
2023-03-03T23:04:41.962Z,3.36
2023-03-03T23:07:27.812Z,2.78
2023-03-03T23:10:13.830Z,2.63
2023-03-03T23:12:59.830Z,2.73
2023-03-03T23:15:45.759Z,2.54
2023-03-03T23:18:31.788Z,2.22
2023-03-03T23:21:17.529Z,1.98
2023-03-03T23:24:03.465Z,1.63
2023-03-03T23:26:49.270Z,1.65
2023-03-03T23:29:35.222Z,1.81
2023-03-03T23:32:21.396Z,1.75
2023-03-03T23:35:07.259Z,1.61
2023-03-03T23:37:53.083Z,1.59
2023-03-03T23:40:39.031Z,1.81
2023-03-03T23:43:24.971Z,1.75
2023-03-03T23:46:10.885Z,1.69
2023-03-03T23:48:56.875Z,1.88
2023-03-03T23:51:42.765Z,1.89
2023-03-03T23:54:28.723Z,2.03
2023-03-03T23:57:14.757Z,2.01
